This is the latest recevied weather packets stored in our database for station/object SP9POL-3. If no packets are shown the sender has not sent any weather packets the latest 10 day(s).
| Time | Temp. | Humidity | Pressure | Rain* | Wind** | Luminosity | Snow |
|---|---|---|---|---|---|---|---|
| 1777583464 | 8.89° C | 34% | 1026.2 hPa | - | - | - | - |
| 1777581784 | 9.44° C | 34% | 1026.2 hPa | - | - | - | - |
| 1777580103 | 9.44° C | 34% | 1026.3 hPa | - | - | - | - |
| 1777578423 | 8.89° C | 35% | 1026.6 hPa | - | - | - | - |
| 1777576742 | 9.44° C | 35% | 1026.7 hPa | - | - | - | - |
| 1777575062 | 9.44° C | 35% | 1026.6 hPa | - | - | - | - |
| 1777573382 | 9.44° C | 32% | 1026.7 hPa | - | - | - | - |
| 1777571702 | 9.44° C | 32% | 1026.7 hPa | - | - | - | - |
| 1777570272 | 10° C | 30% | 1026.7 hPa | - | - | - | - |
| 1777568592 | 11.11° C | 29% | 1026.8 hPa | - | - | - | - |
| 1777566911 | 11.67° C | 27% | 1026.7 hPa | - | - | - | - |
| 1777565231 | 11.11° C | 26% | 1026.7 hPa | - | - | - | - |
| 1777563551 | 11.11° C | 25% | 1026.9 hPa | - | - | - | - |
| 1777561871 | 11.11° C | 24% | 1026.8 hPa | - | - | - | - |
| 1777560190 | 9.44° C | 23% | 1027.1 hPa | - | - | - | - |
| 1777558510 | 10° C | 22% | 1027.1 hPa | - | - | - | - |
| 1777556830 | 9.44° C | 21% | 1027.4 hPa | - | - | - | - |
| 1777555150 | 10° C | 20% | 1027.5 hPa | - | - | - | - |
| 1777553470 | 11.67° C | 19% | 1027.7 hPa | - | - | - | - |
| 1777551790 | 14.44° C | 16% | 1028.1 hPa | - | - | - | - |
| 1777550110 | 15° C | 14% | 1028.2 hPa | - | - | - | - |
| 1777548430 | 13.89° C | 18% | 1028.6 hPa | - | - | - | - |
| 1777546750 | 11.11° C | 19% | 1028.6 hPa | - | - | - | - |
| 1777545069 | 9.44° C | 23% | 1028.8 hPa | - | - | - | - |
| 1777543389 | 8.33° C | 26% | 1029.3 hPa | - | - | - | - |
* Rain since midnight (hover to see other rain measurements)
** Current wind speed in m/s (hover to see current wind gust speed)